sensor_id;sensor_type;location;lat;lon;timestamp;P1;durP1;ratioP1;P2;durP2;ratioP2
77984;SDS011;67177;47.240;-1.546;2023-03-13T00:02:07;6.67;;;2.50;;
77984;SDS011;67177;47.240;-1.546;2023-03-13T00:04:33;8.05;;;2.45;;
77984;SDS011;67177;47.240;-1.546;2023-03-13T00:06:59;7.77;;;2.50;;
77984;SDS011;67177;47.240;-1.546;2023-03-13T00:09:24;5.97;;;1.93;;
77984;SDS011;67177;47.240;-1.546;2023-03-13T00:11:51;6.60;;;2.40;;
77984;SDS011;67177;47.240;-1.546;2023-03-13T00:14:17;5.32;;;1.90;;
77984;SDS011;67177;47.240;-1.546;2023-03-13T00:16:43;6.40;;;1.87;;
77984;SDS011;67177;47.240;-1.546;2023-03-13T00:19:08;8.45;;;2.30;;
77984;SDS011;67177;47.240;-1.546;2023-03-13T00:21:34;6.97;;;2.13;;
77984;SDS011;67177;47.240;-1.546;2023-03-13T00:24:05;6.57;;;2.00;;
77984;SDS011;67177;47.240;-1.546;2023-03-13T00:26:31;6.25;;;2.30;;
77984;SDS011;67177;47.240;-1.546;2023-03-13T00:28:57;6.18;;;1.95;;
77984;SDS011;67177;47.240;-1.546;2023-03-13T00:31:24;7.32;;;2.38;;
77984;SDS011;67177;47.240;-1.546;2023-03-13T00:33:52;6.07;;;2.20;;
77984;SDS011;67177;47.240;-1.546;2023-03-13T00:36:23;7.75;;;2.38;;
77984;SDS011;67177;47.240;-1.546;2023-03-13T00:38:50;8.40;;;2.47;;
77984;SDS011;67177;47.240;-1.546;2023-03-13T00:41:20;7.37;;;2.30;;
77984;SDS011;67177;47.240;-1.546;2023-03-13T00:43:47;8.18;;;2.33;;
77984;SDS011;67177;47.240;-1.546;2023-03-13T00:46:15;7.60;;;2.28;;
77984;SDS011;67177;47.240;-1.546;2023-03-13T00:48:42;6.88;;;2.33;;
77984;SDS011;67177;47.240;-1.546;2023-03-13T00:51:08;8.13;;;2.40;;
77984;SDS011;67177;47.240;-1.546;2023-03-13T00:53:34;8.57;;;2.35;;
77984;SDS011;67177;47.240;-1.546;2023-03-13T00:56:08;7.82;;;2.13;;
77984;SDS011;67177;47.240;-1.546;2023-03-13T00:58:37;7.43;;;2.28;;
77984;SDS011;67177;47.240;-1.546;2023-03-13T01:01:07;10.40;;;2.90;;
77984;SDS011;67177;47.240;-1.546;2023-03-13T01:03:41;5.53;;;2.30;;
77984;SDS011;67177;47.240;-1.546;2023-03-13T01:06:11;7.25;;;2.10;;
77984;SDS011;67177;47.240;-1.546;2023-03-13T01:08:38;8.18;;;2.20;;
77984;SDS011;67177;47.240;-1.546;2023-03-13T01:11:05;5.68;;;2.00;;
77984;SDS011;67177;47.240;-1.546;2023-03-13T01:13:33;6.70;;;2.40;;
77984;SDS011;67177;47.240;-1.546;2023-03-13T01:16:13;6.70;;;2.00;;
77984;SDS011;67177;47.240;-1.546;2023-03-13T01:18:44;5.90;;;1.77;;
77984;SDS011;67177;47.240;-1.546;2023-03-13T01:21:15;7.57;;;2.15;;
77984;SDS011;67177;47.240;-1.546;2023-03-13T01:23:43;5.57;;;1.83;;
77984;SDS011;67177;47.240;-1.546;2023-03-13T01:26:09;5.88;;;1.92;;
77984;SDS011;67177;47.240;-1.546;2023-03-13T01:28:35;6.47;;;1.90;;
77984;SDS011;67177;47.240;-1.546;2023-03-13T01:33:37;6.05;;;2.30;;
77984;SDS011;67177;47.240;-1.546;2023-03-13T01:36:03;6.10;;;1.80;;
77984;SDS011;67177;47.240;-1.546;2023-03-13T01:38:29;5.38;;;1.98;;
77984;SDS011;67177;47.240;-1.546;2023-03-13T01:40:54;6.67;;;2.40;;
77984;SDS011;67177;47.240;-1.546;2023-03-13T01:45:55;5.90;;;2.05;;
77984;SDS011;67177;47.240;-1.546;2023-03-13T01:51:01;6.00;;;1.92;;
77984;SDS011;67177;47.240;-1.546;2023-03-13T01:53:32;5.45;;;2.00;;
77984;SDS011;67177;47.240;-1.546;2023-03-13T01:56:00;5.82;;;2.00;;
77984;SDS011;67177;47.240;-1.546;2023-03-13T01:58:30;6.68;;;2.00;;
77984;SDS011;67177;47.240;-1.546;2023-03-13T02:00:56;7.00;;;2.03;;
77984;SDS011;67177;47.240;-1.546;2023-03-13T02:03:22;7.93;;;2.55;;
77984;SDS011;67177;47.240;-1.546;2023-03-13T02:05:49;7.32;;;2.28;;
77984;SDS011;67177;47.240;-1.546;2023-03-13T02:11:17;6.13;;;2.10;;
77984;SDS011;67177;47.240;-1.546;2023-03-13T02:13:40;5.57;;;1.70;;
77984;SDS011;67177;47.240;-1.546;2023-03-13T02:16:07;5.57;;;2.00;;
77984;SDS011;67177;47.240;-1.546;2023-03-13T02:18:33;5.75;;;2.10;;
77984;SDS011;67177;47.240;-1.546;2023-03-13T02:21:06;5.93;;;2.00;;
77984;SDS011;67177;47.240;-1.546;2023-03-13T02:23:44;7.37;;;2.40;;
77984;SDS011;67177;47.240;-1.546;2023-03-13T02:26:18;5.78;;;2.08;;
77984;SDS011;67177;47.240;-1.546;2023-03-13T02:28:44;7.65;;;2.40;;
77984;SDS011;67177;47.240;-1.546;2023-03-13T02:31:10;5.83;;;2.07;;
77984;SDS011;67177;47.240;-1.546;2023-03-13T02:33:37;5.82;;;1.98;;
77984;SDS011;67177;47.240;-1.546;2023-03-13T02:36:06;6.68;;;2.30;;
77984;SDS011;67177;47.240;-1.546;2023-03-13T02:38:33;6.60;;;2.42;;
77984;SDS011;67177;47.240;-1.546;2023-03-13T02:41:03;7.97;;;2.43;;
77984;SDS011;67177;47.240;-1.546;2023-03-13T02:43:33;6.25;;;2.05;;
77984;SDS011;67177;47.240;-1.546;2023-03-13T02:46:05;6.82;;;1.92;;
77984;SDS011;67177;47.240;-1.546;2023-03-13T02:48:38;5.40;;;2.10;;
77984;SDS011;67177;47.240;-1.546;2023-03-13T02:53:41;8.27;;;2.40;;
77984;SDS011;67177;47.240;-1.546;2023-03-13T02:56:08;5.78;;;1.90;;
77984;SDS011;67177;47.240;-1.546;2023-03-13T02:58:42;7.68;;;2.42;;
77984;SDS011;67177;47.240;-1.546;2023-03-13T03:01:08;6.07;;;2.17;;
77984;SDS011;67177;47.240;-1.546;2023-03-13T03:03:34;6.90;;;2.20;;
77984;SDS011;67177;47.240;-1.546;2023-03-13T03:06:04;4.43;;;1.75;;
77984;SDS011;67177;47.240;-1.546;2023-03-13T03:08:31;5.30;;;1.95;;
77984;SDS011;67177;47.240;-1.546;2023-03-13T03:10:58;7.55;;;2.38;;
77984;SDS011;67177;47.240;-1.546;2023-03-13T03:13:24;6.70;;;2.30;;
77984;SDS011;67177;47.240;-1.546;2023-03-13T03:15:50;7.38;;;2.03;;
77984;SDS011;67177;47.240;-1.546;2023-03-13T03:18:16;8.10;;;2.53;;
77984;SDS011;67177;47.240;-1.546;2023-03-13T03:20:42;7.27;;;2.03;;
77984;SDS011;67177;47.240;-1.546;2023-03-13T03:23:07;6.30;;;2.25;;
77984;SDS011;67177;47.240;-1.546;2023-03-13T03:25:33;5.80;;;2.17;;
77984;SDS011;67177;47.240;-1.546;2023-03-13T03:27:59;5.23;;;1.87;;
77984;SDS011;67177;47.240;-1.546;2023-03-13T03:30:24;5.22;;;1.92;;
77984;SDS011;67177;47.240;-1.546;2023-03-13T03:32:50;6.00;;;1.70;;
77984;SDS011;67177;47.240;-1.546;2023-03-13T03:35:16;5.40;;;1.85;;
77984;SDS011;67177;47.240;-1.546;2023-03-13T03:37:41;5.13;;;1.93;;
77984;SDS011;67177;47.240;-1.546;2023-03-13T03:40:07;7.90;;;1.90;;
77984;SDS011;67177;47.240;-1.546;2023-03-13T03:42:33;5.25;;;1.90;;
77984;SDS011;67177;47.240;-1.546;2023-03-13T03:44:59;6.75;;;2.05;;
77984;SDS011;67177;47.240;-1.546;2023-03-13T03:47:25;6.07;;;1.77;;
77984;SDS011;67177;47.240;-1.546;2023-03-13T03:49:50;5.83;;;2.00;;
77984;SDS011;67177;47.240;-1.546;2023-03-13T03:52:16;4.70;;;1.70;;
77984;SDS011;67177;47.240;-1.546;2023-03-13T03:54:42;5.13;;;1.83;;
77984;SDS011;67177;47.240;-1.546;2023-03-13T03:57:07;5.35;;;1.80;;
77984;SDS011;67177;47.240;-1.546;2023-03-13T03:59:33;4.73;;;1.90;;
77984;SDS011;67177;47.240;-1.546;2023-03-13T04:01:58;4.47;;;1.40;;
77984;SDS011;67177;47.240;-1.546;2023-03-13T04:04:24;4.80;;;1.47;;
77984;SDS011;67177;47.240;-1.546;2023-03-13T04:06:50;4.20;;;1.50;;
77984;SDS011;67177;47.240;-1.546;2023-03-13T04:09:16;4.17;;;1.60;;
77984;SDS011;67177;47.240;-1.546;2023-03-13T04:11:41;4.45;;;1.38;;
77984;SDS011;67177;47.240;-1.546;2023-03-13T04:14:07;4.67;;;1.50;;
77984;SDS011;67177;47.240;-1.546;2023-03-13T04:16:33;4.68;;;1.30;;
77984;SDS011;67177;47.240;-1.546;2023-03-13T04:18:59;3.80;;;1.40;;
77984;SDS011;67177;47.240;-1.546;2023-03-13T04:21:24;3.95;;;1.40;;
77984;SDS011;67177;47.240;-1.546;2023-03-13T04:23:50;5.13;;;1.37;;
77984;SDS011;67177;47.240;-1.546;2023-03-13T04:26:15;6.10;;;1.73;;
77984;SDS011;67177;47.240;-1.546;2023-03-13T04:28:41;4.43;;;1.60;;
77984;SDS011;67177;47.240;-1.546;2023-03-13T04:31:07;4.60;;;1.60;;
77984;SDS011;67177;47.240;-1.546;2023-03-13T04:33:32;4.35;;;1.50;;
77984;SDS011;67177;47.240;-1.546;2023-03-13T04:36:00;5.30;;;1.60;;
77984;SDS011;67177;47.240;-1.546;2023-03-13T04:38:26;5.68;;;1.90;;
77984;SDS011;67177;47.240;-1.546;2023-03-13T04:40:52;5.28;;;1.75;;
77984;SDS011;67177;47.240;-1.546;2023-03-13T04:43:18;5.35;;;2.15;;
77984;SDS011;67177;47.240;-1.546;2023-03-13T04:45:43;5.30;;;1.87;;
77984;SDS011;67177;47.240;-1.546;2023-03-13T04:48:10;6.45;;;2.20;;
77984;SDS011;67177;47.240;-1.546;2023-03-13T04:50:36;6.00;;;2.20;;
77984;SDS011;67177;47.240;-1.546;2023-03-13T04:53:02;5.63;;;1.80;;
77984;SDS011;67177;47.240;-1.546;2023-03-13T04:55:28;5.60;;;2.00;;
77984;SDS011;67177;47.240;-1.546;2023-03-13T04:57:53;4.18;;;1.75;;
77984;SDS011;67177;47.240;-1.546;2023-03-13T05:00:19;5.33;;;1.80;;
77984;SDS011;67177;47.240;-1.546;2023-03-13T05:02:45;5.53;;;1.70;;
77984;SDS011;67177;47.240;-1.546;2023-03-13T05:05:11;5.80;;;2.00;;
77984;SDS011;67177;47.240;-1.546;2023-03-13T05:07:36;6.70;;;2.20;;
77984;SDS011;67177;47.240;-1.546;2023-03-13T05:10:02;5.87;;;2.00;;
77984;SDS011;67177;47.240;-1.546;2023-03-13T05:12:28;6.60;;;2.22;;
77984;SDS011;67177;47.240;-1.546;2023-03-13T05:14:54;6.03;;;2.50;;
77984;SDS011;67177;47.240;-1.546;2023-03-13T05:17:19;5.90;;;2.25;;
77984;SDS011;67177;47.240;-1.546;2023-03-13T05:19:45;8.70;;;2.40;;
77984;SDS011;67177;47.240;-1.546;2023-03-13T05:22:11;5.53;;;2.03;;
77984;SDS011;67177;47.240;-1.546;2023-03-13T05:24:36;7.45;;;2.17;;
77984;SDS011;67177;47.240;-1.546;2023-03-13T05:27:02;6.70;;;2.17;;
77984;SDS011;67177;47.240;-1.546;2023-03-13T05:29:28;6.00;;;2.42;;
77984;SDS011;67177;47.240;-1.546;2023-03-13T05:31:53;9.50;;;2.50;;
77984;SDS011;67177;47.240;-1.546;2023-03-13T05:34:19;6.50;;;2.50;;
77984;SDS011;67177;47.240;-1.546;2023-03-13T05:36:44;8.20;;;3.88;;
77984;SDS011;67177;47.240;-1.546;2023-03-13T05:39:10;11.77;;;6.17;;
77984;SDS011;67177;47.240;-1.546;2023-03-13T05:41:36;10.25;;;5.10;;
77984;SDS011;67177;47.240;-1.546;2023-03-13T05:44:01;8.33;;;4.03;;
77984;SDS011;67177;47.240;-1.546;2023-03-13T05:46:27;8.57;;;3.20;;
77984;SDS011;67177;47.240;-1.546;2023-03-13T05:48:53;6.85;;;2.95;;
77984;SDS011;67177;47.240;-1.546;2023-03-13T05:51:18;6.10;;;2.37;;
77984;SDS011;67177;47.240;-1.546;2023-03-13T05:53:44;6.97;;;2.75;;
77984;SDS011;67177;47.240;-1.546;2023-03-13T05:56:09;7.40;;;2.50;;
77984;SDS011;67177;47.240;-1.546;2023-03-13T05:58:35;5.63;;;2.57;;
77984;SDS011;67177;47.240;-1.546;2023-03-13T06:01:05;5.70;;;2.17;;
77984;SDS011;67177;47.240;-1.546;2023-03-13T06:03:34;5.20;;;1.90;;
77984;SDS011;67177;47.240;-1.546;2023-03-13T06:06:01;7.25;;;2.20;;
77984;SDS011;67177;47.240;-1.546;2023-03-13T06:08:27;4.68;;;1.90;;
77984;SDS011;67177;47.240;-1.546;2023-03-13T06:10:53;5.85;;;2.20;;
77984;SDS011;67177;47.240;-1.546;2023-03-13T06:13:18;6.67;;;2.00;;
77984;SDS011;67177;47.240;-1.546;2023-03-13T06:15:54;5.38;;;2.00;;
77984;SDS011;67177;47.240;-1.546;2023-03-13T06:18:21;6.10;;;2.00;;
77984;SDS011;67177;47.240;-1.546;2023-03-13T06:20:48;6.33;;;2.20;;
77984;SDS011;67177;47.240;-1.546;2023-03-13T06:23:14;5.70;;;2.20;;
77984;SDS011;67177;47.240;-1.546;2023-03-13T06:25:40;4.90;;;1.83;;
77984;SDS011;67177;47.240;-1.546;2023-03-13T06:28:06;5.13;;;1.97;;
77984;SDS011;67177;47.240;-1.546;2023-03-13T06:30:32;5.15;;;1.83;;
77984;SDS011;67177;47.240;-1.546;2023-03-13T06:32:57;6.57;;;2.47;;
77984;SDS011;67177;47.240;-1.546;2023-03-13T06:35:23;8.65;;;2.78;;
77984;SDS011;67177;47.240;-1.546;2023-03-13T06:37:49;8.20;;;3.03;;
77984;SDS011;67177;47.240;-1.546;2023-03-13T06:40:14;6.68;;;2.65;;
77984;SDS011;67177;47.240;-1.546;2023-03-13T06:42:40;8.97;;;2.83;;
77984;SDS011;67177;47.240;-1.546;2023-03-13T06:45:06;5.93;;;2.40;;
77984;SDS011;67177;47.240;-1.546;2023-03-13T06:47:32;4.53;;;2.07;;
77984;SDS011;67177;47.240;-1.546;2023-03-13T06:49:58;6.15;;;2.25;;
77984;SDS011;67177;47.240;-1.546;2023-03-13T06:52:23;5.10;;;2.00;;
77984;SDS011;67177;47.240;-1.546;2023-03-13T06:54:49;6.85;;;2.10;;
77984;SDS011;67177;47.240;-1.546;2023-03-13T06:57:15;6.07;;;2.20;;
77984;SDS011;67177;47.240;-1.546;2023-03-13T06:59:41;5.20;;;1.90;;
77984;SDS011;67177;47.240;-1.546;2023-03-13T07:02:08;5.60;;;2.00;;
77984;SDS011;67177;47.240;-1.546;2023-03-13T07:04:36;6.23;;;1.80;;
77984;SDS011;67177;47.240;-1.546;2023-03-13T07:07:01;4.47;;;1.67;;
77984;SDS011;67177;47.240;-1.546;2023-03-13T07:09:27;4.85;;;1.83;;
77984;SDS011;67177;47.240;-1.546;2023-03-13T07:11:53;7.33;;;2.00;;
77984;SDS011;67177;47.240;-1.546;2023-03-13T07:14:19;5.57;;;2.20;;
77984;SDS011;67177;47.240;-1.546;2023-03-13T07:16:45;10.60;;;3.00;;
77984;SDS011;67177;47.240;-1.546;2023-03-13T07:19:11;6.22;;;2.10;;
77984;SDS011;67177;47.240;-1.546;2023-03-13T07:21:36;8.30;;;2.60;;
77984;SDS011;67177;47.240;-1.546;2023-03-13T07:24:02;5.88;;;2.20;;
77984;SDS011;67177;47.240;-1.546;2023-03-13T07:26:28;7.35;;;2.35;;
77984;SDS011;67177;47.240;-1.546;2023-03-13T07:28:54;6.87;;;2.33;;
77984;SDS011;67177;47.240;-1.546;2023-03-13T07:31:20;6.90;;;2.35;;
77984;SDS011;67177;47.240;-1.546;2023-03-13T07:33:47;6.82;;;2.20;;
77984;SDS011;67177;47.240;-1.546;2023-03-13T07:36:16;5.93;;;2.00;;
77984;SDS011;67177;47.240;-1.546;2023-03-13T07:38:42;8.53;;;2.37;;
77984;SDS011;67177;47.240;-1.546;2023-03-13T07:41:12;5.13;;;2.10;;
77984;SDS011;67177;47.240;-1.546;2023-03-13T07:43:37;5.57;;;2.03;;
77984;SDS011;67177;47.240;-1.546;2023-03-13T07:46:04;6.67;;;2.30;;
77984;SDS011;67177;47.240;-1.546;2023-03-13T07:48:32;5.75;;;1.95;;
77984;SDS011;67177;47.240;-1.546;2023-03-13T07:50:59;5.60;;;2.35;;
77984;SDS011;67177;47.240;-1.546;2023-03-13T07:53:25;7.07;;;2.47;;
77984;SDS011;67177;47.240;-1.546;2023-03-13T07:58:20;6.82;;;2.28;;
77984;SDS011;67177;47.240;-1.546;2023-03-13T08:00:46;7.60;;;2.50;;
77984;SDS011;67177;47.240;-1.546;2023-03-13T08:03:12;8.93;;;2.83;;
77984;SDS011;67177;47.240;-1.546;2023-03-13T08:05:38;7.30;;;2.47;;
77984;SDS011;67177;47.240;-1.546;2023-03-13T08:08:04;8.80;;;2.60;;
77984;SDS011;67177;47.240;-1.546;2023-03-13T08:10:30;10.37;;;2.57;;
77984;SDS011;67177;47.240;-1.546;2023-03-13T08:12:56;7.45;;;2.50;;
77984;SDS011;67177;47.240;-1.546;2023-03-13T08:15:21;9.33;;;2.77;;
77984;SDS011;67177;47.240;-1.546;2023-03-13T08:17:50;9.80;;;2.92;;
77984;SDS011;67177;47.240;-1.546;2023-03-13T08:20:17;9.13;;;2.83;;
77984;SDS011;67177;47.240;-1.546;2023-03-13T08:22:43;8.40;;;2.30;;
77984;SDS011;67177;47.240;-1.546;2023-03-13T08:25:10;8.68;;;2.45;;
77984;SDS011;67177;47.240;-1.546;2023-03-13T08:27:36;9.38;;;2.30;;
77984;SDS011;67177;47.240;-1.546;2023-03-13T08:30:02;8.40;;;2.70;;
77984;SDS011;67177;47.240;-1.546;2023-03-13T08:32:28;6.60;;;2.05;;
77984;SDS011;67177;47.240;-1.546;2023-03-13T08:34:56;6.72;;;2.17;;
77984;SDS011;67177;47.240;-1.546;2023-03-13T08:37:22;9.35;;;2.10;;
77984;SDS011;67177;47.240;-1.546;2023-03-13T08:39:48;8.05;;;2.20;;
77984;SDS011;67177;47.240;-1.546;2023-03-13T08:42:14;9.60;;;2.53;;
77984;SDS011;67177;47.240;-1.546;2023-03-13T08:44:39;6.68;;;2.20;;
77984;SDS011;67177;47.240;-1.546;2023-03-13T08:47:05;9.15;;;2.50;;
77984;SDS011;67177;47.240;-1.546;2023-03-13T08:49:32;7.70;;;1.97;;
77984;SDS011;67177;47.240;-1.546;2023-03-13T08:51:58;6.18;;;1.73;;
77984;SDS011;67177;47.240;-1.546;2023-03-13T08:54:24;7.05;;;2.03;;
77984;SDS011;67177;47.240;-1.546;2023-03-13T08:56:50;7.00;;;2.10;;
77984;SDS011;67177;47.240;-1.546;2023-03-13T08:59:16;7.00;;;1.85;;
77984;SDS011;67177;47.240;-1.546;2023-03-13T09:01:42;9.20;;;2.20;;
77984;SDS011;67177;47.240;-1.546;2023-03-13T09:04:07;7.03;;;2.15;;
77984;SDS011;67177;47.240;-1.546;2023-03-13T09:06:33;9.07;;;2.17;;
77984;SDS011;67177;47.240;-1.546;2023-03-13T09:09:01;9.30;;;2.50;;
77984;SDS011;67177;47.240;-1.546;2023-03-13T09:11:27;8.77;;;2.60;;
77984;SDS011;67177;47.240;-1.546;2023-03-13T09:13:54;7.83;;;2.40;;
77984;SDS011;67177;47.240;-1.546;2023-03-13T09:16:23;10.75;;;2.60;;
77984;SDS011;67177;47.240;-1.546;2023-03-13T09:18:51;8.70;;;2.70;;
77984;SDS011;67177;47.240;-1.546;2023-03-13T09:21:21;7.72;;;2.22;;
77984;SDS011;67177;47.240;-1.546;2023-03-13T09:23:48;10.18;;;2.58;;
77984;SDS011;67177;47.240;-1.546;2023-03-13T09:26:15;8.23;;;2.27;;
77984;SDS011;67177;47.240;-1.546;2023-03-13T09:28:41;8.82;;;2.70;;
77984;SDS011;67177;47.240;-1.546;2023-03-13T09:31:14;11.20;;;2.65;;
77984;SDS011;67177;47.240;-1.546;2023-03-13T09:33:42;9.85;;;2.50;;
77984;SDS011;67177;47.240;-1.546;2023-03-13T09:36:09;9.37;;;2.07;;
77984;SDS011;67177;47.240;-1.546;2023-03-13T09:38:36;12.32;;;2.60;;
77984;SDS011;67177;47.240;-1.546;2023-03-13T09:49:11;7.87;;;2.10;;
77984;SDS011;67177;47.240;-1.546;2023-03-13T09:51:41;6.40;;;1.80;;
77984;SDS011;67177;47.240;-1.546;2023-03-13T09:54:16;9.98;;;2.45;;
77984;SDS011;67177;47.240;-1.546;2023-03-13T09:56:51;10.23;;;2.40;;
77984;SDS011;67177;47.240;-1.546;2023-03-13T09:59:26;11.75;;;3.25;;
77984;SDS011;67177;47.240;-1.546;2023-03-13T10:01:53;7.40;;;2.20;;
77984;SDS011;67177;47.240;-1.546;2023-03-13T10:06:53;8.65;;;2.33;;
77984;SDS011;67177;47.240;-1.546;2023-03-13T10:09:25;11.52;;;2.67;;
77984;SDS011;67177;47.240;-1.546;2023-03-13T10:12:05;7.47;;;2.13;;
77984;SDS011;67177;47.240;-1.546;2023-03-13T10:14:42;8.30;;;2.20;;
77984;SDS011;67177;47.240;-1.546;2023-03-13T10:20:17;9.10;;;2.35;;
77984;SDS011;67177;47.240;-1.546;2023-03-13T10:22:50;13.60;;;3.50;;
77984;SDS011;67177;47.240;-1.546;2023-03-13T10:25:36;14.15;;;3.35;;
77984;SDS011;67177;47.240;-1.546;2023-03-13T10:28:03;9.32;;;2.80;;
77984;SDS011;67177;47.240;-1.546;2023-03-13T10:30:31;9.48;;;2.53;;
77984;SDS011;67177;47.240;-1.546;2023-03-13T10:35:33;12.90;;;3.07;;
77984;SDS011;67177;47.240;-1.546;2023-03-13T10:38:03;11.75;;;2.90;;
77984;SDS011;67177;47.240;-1.546;2023-03-13T10:40:37;8.57;;;2.95;;
77984;SDS011;67177;47.240;-1.546;2023-03-13T10:43:16;9.35;;;2.60;;
77984;SDS011;67177;47.240;-1.546;2023-03-13T10:45:43;12.48;;;3.13;;
77984;SDS011;67177;47.240;-1.546;2023-03-13T10:48:19;11.77;;;2.73;;
77984;SDS011;67177;47.240;-1.546;2023-03-13T10:50:51;11.85;;;2.88;;
77984;SDS011;67177;47.240;-1.546;2023-03-13T10:55:53;12.73;;;2.90;;
77984;SDS011;67177;47.240;-1.546;2023-03-13T10:58:22;11.82;;;2.90;;
77984;SDS011;67177;47.240;-1.546;2023-03-13T11:01:01;11.48;;;2.70;;
77984;SDS011;67177;47.240;-1.546;2023-03-13T11:03:42;12.85;;;2.90;;
77984;SDS011;67177;47.240;-1.546;2023-03-13T11:06:22;11.75;;;3.35;;
77984;SDS011;67177;47.240;-1.546;2023-03-13T11:08:57;14.10;;;3.07;;
77984;SDS011;67177;47.240;-1.546;2023-03-13T11:14:11;11.77;;;2.78;;
77984;SDS011;67177;47.240;-1.546;2023-03-13T11:16:45;10.43;;;2.57;;
77984;SDS011;67177;47.240;-1.546;2023-03-13T11:22:17;13.30;;;3.17;;
77984;SDS011;67177;47.240;-1.546;2023-03-13T11:36:49;9.73;;;2.50;;
77984;SDS011;67177;47.240;-1.546;2023-03-13T11:38:54;17.98;;;2.70;;
77984;SDS011;67177;47.240;-1.546;2023-03-13T11:54:27;11.73;;;2.28;;
77984;SDS011;67177;47.240;-1.546;2023-03-13T11:57:06;15.30;;;2.80;;
77984;SDS011;67177;47.240;-1.546;2023-03-13T12:04:40;13.63;;;2.77;;
77984;SDS011;67177;47.240;-1.546;2023-03-13T12:10:03;11.27;;;2.50;;
77984;SDS011;67177;47.240;-1.546;2023-03-13T12:12:39;9.90;;;2.00;;
77984;SDS011;67177;47.240;-1.546;2023-03-13T12:30:54;15.33;;;2.90;;
77984;SDS011;67177;47.240;-1.546;2023-03-13T12:37:13;14.40;;;2.15;;
77984;SDS011;67177;47.240;-1.546;2023-03-13T12:44:40;15.63;;;3.03;;
77984;SDS011;67177;47.240;-1.546;2023-03-13T12:47:13;19.75;;;3.70;;
77984;SDS011;67177;47.240;-1.546;2023-03-13T12:55:26;13.93;;;2.80;;
77984;SDS011;67177;47.240;-1.546;2023-03-13T12:58:14;10.80;;;2.33;;
77984;SDS011;67177;47.240;-1.546;2023-03-13T13:01:01;12.40;;;2.35;;
77984;SDS011;67177;47.240;-1.546;2023-03-13T13:03:30;11.65;;;2.35;;
77984;SDS011;67177;47.240;-1.546;2023-03-13T13:06:15;21.13;;;2.95;;
77984;SDS011;67177;47.240;-1.546;2023-03-13T13:14:05;11.93;;;2.15;;
77984;SDS011;67177;47.240;-1.546;2023-03-13T13:16:56;17.63;;;2.90;;
77984;SDS011;67177;47.240;-1.546;2023-03-13T13:27:51;12.77;;;2.53;;
77984;SDS011;67177;47.240;-1.546;2023-03-13T13:35:18;19.37;;;2.90;;
77984;SDS011;67177;47.240;-1.546;2023-03-13T13:37:45;14.50;;;2.40;;
77984;SDS011;67177;47.240;-1.546;2023-03-13T13:48:12;13.80;;;2.95;;
77984;SDS011;67177;47.240;-1.546;2023-03-13T13:58:57;13.43;;;2.67;;
77984;SDS011;67177;47.240;-1.546;2023-03-13T14:01:37;17.50;;;2.58;;
77984;SDS011;67177;47.240;-1.546;2023-03-13T14:06:44;12.20;;;2.50;;
77984;SDS011;67177;47.240;-1.546;2023-03-13T14:09:23;15.00;;;2.97;;
77984;SDS011;67177;47.240;-1.546;2023-03-13T14:11:55;16.23;;;3.10;;
77984;SDS011;67177;47.240;-1.546;2023-03-13T14:14:21;18.15;;;3.58;;
77984;SDS011;67177;47.240;-1.546;2023-03-13T14:16:51;18.85;;;3.17;;
77984;SDS011;67177;47.240;-1.546;2023-03-13T14:22:04;15.02;;;3.00;;
77984;SDS011;67177;47.240;-1.546;2023-03-13T14:24:32;15.65;;;2.95;;
77984;SDS011;67177;47.240;-1.546;2023-03-13T14:26:59;15.43;;;2.70;;
77984;SDS011;67177;47.240;-1.546;2023-03-13T14:29:25;16.20;;;3.05;;
77984;SDS011;67177;47.240;-1.546;2023-03-13T14:31:56;17.70;;;3.50;;
77984;SDS011;67177;47.240;-1.546;2023-03-13T14:34:23;17.23;;;2.78;;
77984;SDS011;67177;47.240;-1.546;2023-03-13T14:36:56;14.40;;;2.78;;
77984;SDS011;67177;47.240;-1.546;2023-03-13T14:42:14;21.35;;;4.07;;
77984;SDS011;67177;47.240;-1.546;2023-03-13T14:44:41;15.30;;;3.30;;
77984;SDS011;67177;47.240;-1.546;2023-03-13T14:47:26;23.48;;;3.50;;
77984;SDS011;67177;47.240;-1.546;2023-03-13T14:49:56;17.50;;;3.35;;
77984;SDS011;67177;47.240;-1.546;2023-03-13T14:52:24;17.98;;;3.45;;
77984;SDS011;67177;47.240;-1.546;2023-03-13T14:54:56;19.02;;;3.30;;
77984;SDS011;67177;47.240;-1.546;2023-03-13T14:57:23;22.50;;;4.30;;
77984;SDS011;67177;47.240;-1.546;2023-03-13T14:59:51;23.30;;;3.88;;
77984;SDS011;67177;47.240;-1.546;2023-03-13T15:02:19;16.55;;;3.38;;
77984;SDS011;67177;47.240;-1.546;2023-03-13T15:05:00;9.88;;;2.65;;
77984;SDS011;67177;47.240;-1.546;2023-03-13T15:07:40;21.77;;;3.20;;
77984;SDS011;67177;47.240;-1.546;2023-03-13T15:10:19;19.60;;;3.53;;
77984;SDS011;67177;47.240;-1.546;2023-03-13T15:12:49;17.65;;;3.60;;
77984;SDS011;67177;47.240;-1.546;2023-03-13T15:15:16;21.45;;;4.35;;
77984;SDS011;67177;47.240;-1.546;2023-03-13T15:17:42;17.83;;;3.90;;
77984;SDS011;67177;47.240;-1.546;2023-03-13T15:20:09;19.03;;;3.13;;
77984;SDS011;67177;47.240;-1.546;2023-03-13T15:22:39;26.45;;;4.35;;
77984;SDS011;67177;47.240;-1.546;2023-03-13T15:25:17;20.90;;;4.10;;
77984;SDS011;67177;47.240;-1.546;2023-03-13T15:27:44;20.20;;;3.65;;
77984;SDS011;67177;47.240;-1.546;2023-03-13T15:30:15;20.55;;;3.70;;
77984;SDS011;67177;47.240;-1.546;2023-03-13T15:32:42;19.43;;;3.57;;
77984;SDS011;67177;47.240;-1.546;2023-03-13T15:35:21;16.95;;;3.58;;
77984;SDS011;67177;47.240;-1.546;2023-03-13T15:37:55;22.35;;;3.97;;
77984;SDS011;67177;47.240;-1.546;2023-03-13T15:40:21;17.05;;;3.40;;
77984;SDS011;67177;47.240;-1.546;2023-03-13T15:42:48;18.38;;;4.07;;
77984;SDS011;67177;47.240;-1.546;2023-03-13T15:45:14;25.60;;;3.97;;
77984;SDS011;67177;47.240;-1.546;2023-03-13T15:47:40;24.05;;;4.10;;
77984;SDS011;67177;47.240;-1.546;2023-03-13T15:50:13;31.00;;;4.50;;
77984;SDS011;67177;47.240;-1.546;2023-03-13T15:52:40;20.98;;;4.03;;
77984;SDS011;67177;47.240;-1.546;2023-03-13T15:55:06;17.30;;;3.38;;
77984;SDS011;67177;47.240;-1.546;2023-03-13T15:57:32;21.27;;;3.83;;
77984;SDS011;67177;47.240;-1.546;2023-03-13T16:00:02;27.40;;;4.53;;
77984;SDS011;67177;47.240;-1.546;2023-03-13T16:02:30;17.20;;;3.92;;
77984;SDS011;67177;47.240;-1.546;2023-03-13T16:04:56;22.08;;;4.20;;
77984;SDS011;67177;47.240;-1.546;2023-03-13T16:07:22;21.83;;;4.00;;
77984;SDS011;67177;47.240;-1.546;2023-03-13T16:09:48;23.20;;;3.95;;
77984;SDS011;67177;47.240;-1.546;2023-03-13T16:12:14;20.27;;;3.63;;
77984;SDS011;67177;47.240;-1.546;2023-03-13T16:14:40;15.80;;;3.22;;
77984;SDS011;67177;47.240;-1.546;2023-03-13T16:17:13;14.00;;;3.20;;
77984;SDS011;67177;47.240;-1.546;2023-03-13T16:19:43;18.70;;;3.22;;
77984;SDS011;67177;47.240;-1.546;2023-03-13T16:22:10;15.38;;;3.28;;
77984;SDS011;67177;47.240;-1.546;2023-03-13T16:24:36;28.27;;;4.20;;
77984;SDS011;67177;47.240;-1.546;2023-03-13T16:27:07;20.40;;;3.72;;
77984;SDS011;67177;47.240;-1.546;2023-03-13T16:29:41;19.77;;;3.93;;
77984;SDS011;67177;47.240;-1.546;2023-03-13T16:32:09;20.13;;;3.78;;
77984;SDS011;67177;47.240;-1.546;2023-03-13T16:34:36;20.23;;;3.42;;
77984;SDS011;67177;47.240;-1.546;2023-03-13T16:37:08;17.30;;;3.33;;
77984;SDS011;67177;47.240;-1.546;2023-03-13T16:39:36;15.97;;;2.90;;
77984;SDS011;67177;47.240;-1.546;2023-03-13T16:42:02;15.45;;;3.15;;
77984;SDS011;67177;47.240;-1.546;2023-03-13T16:44:27;17.33;;;2.97;;
77984;SDS011;67177;47.240;-1.546;2023-03-13T16:46:53;14.63;;;2.88;;
77984;SDS011;67177;47.240;-1.546;2023-03-13T16:49:19;16.87;;;3.20;;
77984;SDS011;67177;47.240;-1.546;2023-03-13T16:51:44;17.13;;;3.30;;
77984;SDS011;67177;47.240;-1.546;2023-03-13T16:54:10;24.57;;;3.03;;
77984;SDS011;67177;47.240;-1.546;2023-03-13T16:56:38;23.67;;;3.72;;
77984;SDS011;67177;47.240;-1.546;2023-03-13T16:59:08;23.33;;;4.63;;
77984;SDS011;67177;47.240;-1.546;2023-03-13T17:01:36;18.70;;;3.20;;
77984;SDS011;67177;47.240;-1.546;2023-03-13T17:04:02;29.70;;;3.80;;